createdAt,value
2019-05-01T00:03:26.586Z,78.70
2019-05-01T00:07:35.823Z,80.20
2019-05-01T00:11:40.381Z,79.00
2019-05-01T00:15:45.111Z,77.70
2019-05-01T00:19:49.673Z,80.40
2019-05-01T00:23:54.284Z,78.60
2019-05-01T00:27:58.845Z,81.50
2019-05-01T00:32:03.407Z,79.70
2019-05-01T00:36:07.919Z,79.30
2019-05-01T00:40:12.691Z,80.00
2019-05-01T00:44:17.259Z,78.30
2019-05-01T00:48:21.819Z,79.10
2019-05-01T00:52:26.386Z,79.90
2019-05-01T00:56:41.580Z,79.60
2019-05-01T01:01:08.265Z,79.60
2019-05-01T01:05:12.859Z,79.30
2019-05-01T01:09:17.822Z,79.70
2019-05-01T01:13:22.384Z,78.90
2019-05-01T01:17:26.924Z,79.80
2019-05-01T01:21:31.484Z,80.50
2019-05-01T01:25:36.078Z,78.90
2019-05-01T01:29:40.636Z,79.70
2019-05-01T01:33:45.296Z,80.00
2019-05-01T01:37:49.867Z,81.20
2019-05-01T01:41:54.898Z,81.00
2019-05-01T01:46:00.206Z,82.40
2019-05-01T01:50:05.132Z,81.00
2019-05-01T01:54:10.056Z,80.90
2019-05-01T01:58:15.377Z,80.80
2019-05-01T02:02:40.835Z,82.00
2019-05-01T02:06:45.444Z,82.20
2019-05-01T02:10:50.006Z,81.90
2019-05-01T02:14:54.566Z,80.60
2019-05-01T02:18:59.196Z,83.10
2019-05-01T02:23:03.733Z,81.10
2019-05-01T02:27:13.371Z,79.60
2019-05-01T02:31:29.700Z,81.70
2019-05-01T02:35:35.964Z,82.00
2019-05-01T02:39:42.824Z,81.30
2019-05-01T02:43:50.237Z,81.80
2019-05-01T02:47:55.003Z,81.70
2019-05-01T02:51:59.905Z,81.20
2019-05-01T02:56:29.845Z,81.10
2019-05-01T03:00:35.007Z,81.40
2019-05-01T03:04:40.176Z,82.60
2019-05-01T03:08:45.697Z,82.20
2019-05-01T03:12:52.050Z,81.60
2019-05-01T03:17:00.640Z,81.00
2019-05-01T03:21:22.788Z,80.90
2019-05-01T03:25:27.585Z,82.60
2019-05-01T03:29:32.704Z,81.60
2019-05-01T03:33:37.315Z,82.60
2019-05-01T03:37:42.061Z,82.50
2019-05-01T03:41:47.245Z,81.40
2019-05-01T03:45:52.177Z,81.50
2019-05-01T03:49:57.094Z,83.10
2019-05-01T03:54:02.301Z,82.40
2019-05-01T03:58:06.993Z,82.70
2019-05-01T04:02:33.556Z,82.30
2019-05-01T04:06:35.060Z,81.50
2019-05-01T04:10:39.614Z,81.00
2019-05-01T04:14:44.778Z,82.50
2019-05-01T04:18:49.877Z,81.70
2019-05-01T04:22:54.529Z,81.30
2019-05-01T04:26:59.289Z,82.30
2019-05-01T04:31:14.109Z,82.50
2019-05-01T04:35:23.755Z,83.10
2019-05-01T04:39:28.920Z,83.40
2019-05-01T04:43:33.808Z,83.30
2019-05-01T04:47:38.825Z,82.00
2019-05-01T04:51:43.688Z,81.80
2019-05-01T04:55:48.345Z,83.70
2019-05-01T04:59:53.603Z,83.60
2019-05-01T05:03:58.895Z,82.70
2019-05-01T05:08:04.089Z,83.90
2019-05-01T05:12:10.685Z,82.60
2019-05-01T05:16:34.140Z,82.10
2019-05-01T05:20:39.092Z,83.50
2019-05-01T05:24:44.080Z,83.70
2019-05-01T05:28:50.124Z,83.70
2019-05-01T05:32:57.003Z,83.90
2019-05-01T05:37:06.820Z,84.40
2019-05-01T05:41:12.145Z,83.00
2019-05-01T05:45:16.722Z,83.60
2019-05-01T05:49:22.323Z,83.70
2019-05-01T05:53:33.896Z,83.40
2019-05-01T05:57:59.996Z,84.30
2019-05-01T06:02:34.403Z,84.60
2019-05-01T06:07:02.516Z,82.40
2019-05-01T06:11:36.417Z,83.20
2019-05-01T06:16:00.241Z,84.60
2019-05-01T06:20:25.865Z,84.00
2019-05-01T06:24:40.502Z,85.00
2019-05-01T06:28:43.401Z,84.10
2019-05-01T06:32:48.376Z,84.00
2019-05-01T06:36:53.045Z,84.30
2019-05-01T06:40:59.973Z,84.60
2019-05-01T06:45:13.021Z,83.80
2019-05-01T06:49:36.255Z,83.60
2019-05-01T06:53:42.539Z,84.50
2019-05-01T06:57:47.532Z,84.50
2019-05-01T07:01:53.316Z,83.40
2019-05-01T07:05:58.828Z,83.90
2019-05-01T07:10:04.629Z,83.40
2019-05-01T07:14:11.074Z,83.90
2019-05-01T07:18:18.948Z,84.10
2019-05-01T07:22:22.368Z,83.30
2019-05-01T07:26:26.989Z,84.00
2019-05-01T07:30:49.967Z,84.10
2019-05-01T07:34:56.857Z,85.00
2019-05-01T07:39:00.115Z,84.40
2019-05-01T07:43:24.066Z,83.70
2019-05-01T07:47:42.927Z,83.20
2019-05-01T07:51:51.877Z,84.40
2019-05-01T07:55:56.845Z,86.30
2019-05-01T08:00:03.725Z,82.20
2019-05-01T08:04:08.011Z,82.00
2019-05-01T08:08:12.579Z,78.40
2019-05-01T08:12:18.908Z,81.50
2019-05-01T08:16:23.384Z,78.70
2019-05-01T08:20:33.951Z,79.90
2019-05-01T08:24:38.557Z,79.30
2019-05-01T08:29:17.228Z,77.90
2019-05-01T08:33:39.577Z,78.00
2019-05-01T08:37:44.177Z,76.70
2019-05-01T08:41:48.704Z,75.90
2019-05-01T08:46:11.844Z,75.80
2019-05-01T08:50:19.960Z,73.00
2019-05-01T08:54:28.856Z,72.90
2019-05-01T08:58:31.529Z,72.40
2019-05-01T09:02:36.882Z,73.00
2019-05-01T09:06:43.784Z,73.70
2019-05-01T09:10:49.765Z,75.00
2019-05-01T09:14:54.480Z,75.10
2019-05-01T09:18:59.051Z,75.60
2019-05-01T09:23:03.728Z,75.60
2019-05-01T09:27:29.404Z,75.70
2019-05-01T09:31:35.376Z,76.00
2019-05-01T09:35:40.485Z,76.90
2019-05-01T09:39:47.287Z,76.50
2019-05-01T09:43:52.203Z,77.30
2019-05-01T09:47:57.655Z,78.00
2019-05-01T09:52:14.537Z,77.90
2019-05-01T09:56:22.188Z,77.60
2019-05-01T10:00:31.320Z,77.10
2019-05-01T10:04:35.894Z,77.70
2019-05-01T10:08:41.926Z,77.60
2019-05-01T10:12:48.374Z,77.10
2019-05-01T10:16:52.843Z,78.40
2019-05-01T10:20:57.404Z,77.50
2019-05-01T10:25:02.018Z,77.90
2019-05-01T10:29:25.919Z,77.70
2019-05-01T10:33:38.264Z,77.40
2019-05-01T10:37:42.947Z,78.20
2019-05-01T10:41:47.909Z,79.20
2019-05-01T10:45:52.604Z,77.70
2019-05-01T10:49:57.172Z,78.70
2019-05-01T10:54:01.710Z,78.60
2019-05-01T10:58:06.288Z,77.90
2019-05-01T11:02:12.538Z,78.00
2019-05-01T11:06:17.104Z,78.30
2019-05-01T11:10:21.672Z,78.60
2019-05-01T11:14:26.210Z,78.50
2019-05-01T11:18:30.764Z,77.80
2019-05-01T11:22:35.350Z,77.80
2019-05-01T11:26:39.997Z,76.90
2019-05-01T11:30:44.631Z,77.60
2019-05-01T11:35:17.544Z,77.60
2019-05-01T11:39:35.921Z,76.30
2019-05-01T11:43:38.380Z,76.10
2019-05-01T11:47:42.962Z,75.40
2019-05-01T11:51:47.525Z,77.60
2019-05-01T11:55:52.088Z,76.60
2019-05-01T11:59:56.636Z,76.00
2019-05-01T12:04:01.196Z,76.60
2019-05-01T12:08:05.785Z,74.50
2019-05-01T12:12:13.016Z,76.20
2019-05-01T12:16:26.163Z,75.90
2019-05-01T12:20:30.691Z,74.90
2019-05-01T12:24:35.300Z,75.20
2019-05-01T12:28:39.888Z,74.30
2019-05-01T12:32:44.467Z,74.10
2019-05-01T12:36:49.633Z,75.00
2019-05-01T12:41:12.022Z,73.30
2019-05-01T12:45:17.288Z,74.70
2019-05-01T12:49:21.852Z,75.00
2019-05-01T12:53:36.652Z,73.40
2019-05-01T12:57:41.228Z,72.80
2019-05-01T13:01:45.748Z,74.40
2019-05-01T13:05:50.317Z,73.10
2019-05-01T13:09:54.874Z,73.80
2019-05-01T13:13:59.440Z,74.40
2019-05-01T13:18:04.107Z,72.20
2019-05-01T13:22:08.694Z,73.20
2019-05-01T13:26:36.865Z,68.10
2019-05-01T13:30:58.043Z,69.20
2019-05-01T13:35:02.604Z,70.00
2019-05-01T13:39:10.136Z,70.70
2019-05-01T13:43:14.811Z,68.90
2019-05-01T13:47:19.338Z,69.90
2019-05-01T13:51:23.897Z,69.30
2019-05-01T13:55:28.776Z,68.80
2019-05-01T13:59:33.349Z,69.60
2019-05-01T14:03:37.917Z,70.00
2019-05-01T14:07:42.446Z,69.00
2019-05-01T14:11:47.015Z,69.80
2019-05-01T14:15:51.563Z,68.80
2019-05-01T14:20:05.807Z,69.30
2019-05-01T14:24:32.108Z,64.40
2019-05-01T14:28:36.738Z,65.90
2019-05-01T14:32:41.340Z,67.10
2019-05-01T14:36:46.007Z,67.50
2019-05-01T14:40:50.557Z,67.70
2019-05-01T14:44:55.075Z,68.10
2019-05-01T14:48:59.664Z,68.80
2019-05-01T14:53:04.340Z,68.40
2019-05-01T14:57:08.912Z,68.40
2019-05-01T15:01:13.484Z,67.00
2019-05-01T15:05:18.010Z,65.70
2019-05-01T15:09:22.574Z,67.70
2019-05-01T15:13:44.999Z,68.00
2019-05-01T15:18:01.432Z,66.10
2019-05-01T15:22:05.994Z,67.70
2019-05-01T15:26:10.552Z,67.40
2019-05-01T15:30:18.344Z,68.50
2019-05-01T15:34:22.897Z,67.70
2019-05-01T15:38:27.443Z,65.00
2019-05-01T15:42:37.414Z,65.10
2019-05-01T15:46:41.933Z,68.10
2019-05-01T15:50:46.503Z,67.50
2019-05-01T15:54:51.066Z,65.50
2019-05-01T15:58:55.668Z,65.90
2019-05-01T16:03:00.227Z,66.40
2019-05-01T16:07:04.740Z,66.40
2019-05-01T16:11:28.328Z,65.40
2019-05-01T16:15:34.596Z,64.90
2019-05-01T16:19:39.160Z,65.80
2019-05-01T16:23:43.755Z,67.70
2019-05-01T16:27:48.427Z,65.30
2019-05-01T16:31:52.975Z,65.80
2019-05-01T16:35:57.541Z,65.50
2019-05-01T16:40:17.195Z,66.10
2019-05-01T16:44:21.837Z,67.20
2019-05-01T16:48:26.412Z,66.90
2019-05-01T16:52:32.503Z,67.30
2019-05-01T16:56:37.168Z,65.70
2019-05-01T17:00:58.449Z,66.80
2019-05-01T17:05:15.408Z,66.20
2019-05-01T17:09:39.101Z,65.90
2019-05-01T17:13:43.623Z,66.50
2019-05-01T17:17:48.187Z,66.00
2019-05-01T17:21:52.747Z,66.50
2019-05-01T17:25:57.343Z,67.50
2019-05-01T17:30:01.889Z,68.00
2019-05-01T17:34:09.381Z,68.30
2019-05-01T17:38:12.632Z,68.00
2019-05-01T17:42:17.197Z,67.30
2019-05-01T17:46:21.765Z,67.90
2019-05-01T17:50:26.324Z,67.90
2019-05-01T17:54:30.835Z,68.70
2019-05-01T17:58:35.399Z,68.60
2019-05-01T18:02:49.902Z,68.60
2019-05-01T18:06:54.455Z,68.50
2019-05-01T18:10:59.012Z,68.90
2019-05-01T18:15:03.522Z,68.90
2019-05-01T18:19:09.938Z,68.90
2019-05-01T18:23:32.573Z,69.20
2019-05-01T18:28:02.137Z,68.90
2019-05-01T18:32:10.084Z,69.20
2019-05-01T18:36:15.095Z,69.40
2019-05-01T18:40:38.953Z,70.40
2019-05-01T18:44:47.400Z,68.90
2019-05-01T18:48:49.863Z,68.80
2019-05-01T18:52:54.428Z,68.70
2019-05-01T18:56:59.003Z,68.50
2019-05-01T19:01:04.171Z,68.20
2019-05-01T19:05:10.703Z,68.30
2019-05-01T19:09:29.105Z,68.10
2019-05-01T19:13:22.620Z,68.10
2019-05-01T19:17:27.208Z,68.10
2019-05-01T19:21:33.637Z,68.20
2019-05-01T19:25:38.258Z,68.30
2019-05-01T19:29:42.803Z,68.30
2019-05-01T19:33:47.384Z,68.50
2019-05-01T19:37:52.900Z,68.60
2019-05-01T19:41:58.199Z,68.90
2019-05-01T19:46:02.748Z,69.00
2019-05-01T19:50:09.631Z,69.20
2019-05-01T19:54:14.323Z,69.50
2019-05-01T19:58:18.849Z,69.50
2019-05-01T20:02:24.113Z,69.70
2019-05-01T20:06:29.004Z,69.80
2019-05-01T20:10:33.547Z,70.00
2019-05-01T20:14:38.131Z,70.00
2019-05-01T20:18:42.640Z,70.10
2019-05-01T20:22:48.237Z,70.50
2019-05-01T20:26:53.464Z,70.70
2019-05-01T20:30:58.120Z,70.30
2019-05-01T20:35:02.677Z,71.20
2019-05-01T20:39:08.584Z,71.40
2019-05-01T20:43:13.151Z,72.40
2019-05-01T20:47:34.078Z,72.10
2019-05-01T20:51:23.911Z,71.90
2019-05-01T20:55:28.496Z,71.70
2019-05-01T20:59:35.275Z,71.80
2019-05-01T21:03:41.084Z,71.90
2019-05-01T21:08:03.236Z,71.90
2019-05-01T21:12:07.783Z,72.10
2019-05-01T21:16:12.348Z,72.10
2019-05-01T21:20:16.999Z,73.10
2019-05-01T21:24:21.554Z,72.20
2019-05-01T21:28:26.152Z,72.40
2019-05-01T21:32:30.696Z,72.50
2019-05-01T21:36:35.267Z,72.60
2019-05-01T21:40:41.149Z,72.70
2019-05-01T21:44:46.093Z,73.00
2019-05-01T21:48:50.667Z,72.90
2019-05-01T21:52:58.134Z,72.90
2019-05-01T21:57:01.451Z,72.80
2019-05-01T22:01:07.311Z,72.90
2019-05-01T22:05:11.895Z,73.00
2019-05-01T22:09:21.655Z,73.20
2019-05-01T22:13:26.260Z,73.00
2019-05-01T22:17:48.488Z,72.40
2019-05-01T22:22:00.737Z,72.70
2019-05-01T22:26:07.236Z,73.90
2019-05-01T22:30:25.413Z,73.80
2019-05-01T22:34:54.985Z,73.80
2019-05-01T22:39:02.320Z,73.80
2019-05-01T22:43:06.687Z,73.80
2019-05-01T22:47:15.133Z,73.90
2019-05-01T22:51:21.190Z,73.90
2019-05-01T22:55:26.684Z,73.90
2019-05-01T22:59:31.457Z,74.10
2019-05-01T23:03:44.998Z,73.90
2019-05-01T23:07:49.537Z,74.10
2019-05-01T23:11:54.093Z,74.30
2019-05-01T23:15:58.639Z,74.40
2019-05-01T23:20:04.015Z,73.40
2019-05-01T23:24:09.515Z,73.60
2019-05-01T23:28:14.122Z,73.80
2019-05-01T23:32:19.036Z,74.00
2019-05-01T23:36:24.080Z,73.90
2019-05-01T23:40:28.757Z,74.10
2019-05-01T23:44:33.319Z,74.00
2019-05-01T23:48:37.837Z,74.10
2019-05-01T23:52:42.429Z,74.10
2019-05-01T23:56:46.979Z,75.90
